Airport View

Enter AWOS ICAO identifier for current METAR.

ex. KFNL

KEHA 041415Z AUTO 02004KT 10SM CLR 23/18 A3014 RMK AO2 T02320179

4 Jul 2020 14:32

Frequency: 118.025

Phone: 620-697-4973

Other Area AWOS: KGUY - KHQG - KJHN - KSPD

TAF AMD KGUY 041205Z 0412/0512 36010KT P6SM SCT100 BKN300 FM041500 09010KT P6SM SCT300 FM042000 11012G18KT P6SM SCT080 BKN100 PROB30 0422/0502 4SM TSRA BKN080CB FM050200 19009KT 6SM -SHRA VCTS OVC090CB FM050500 29007KT P6SM OVC100